createdAt,value
2023-01-08T00:00:53.927Z,7.81
2023-01-08T00:03:58.027Z,8.25
2023-01-08T00:07:01.997Z,7.88
2023-01-08T00:10:05.981Z,7.59
2023-01-08T00:13:09.835Z,7.47
2023-01-08T00:16:13.924Z,7.02
2023-01-08T00:19:17.900Z,6.54
2023-01-08T00:22:21.918Z,6.22
2023-01-08T00:25:25.905Z,5.84
2023-01-08T00:28:29.838Z,5.79
2023-01-08T00:31:33.852Z,5.78
2023-01-08T00:34:37.830Z,5.63
2023-01-08T00:37:42.009Z,5.90
2023-01-08T00:40:46.004Z,6.08
2023-01-08T00:43:50.008Z,5.83
2023-01-08T00:46:54.201Z,5.56
2023-01-08T00:49:58.171Z,5.37
2023-01-08T00:53:02.012Z,5.58
2023-01-08T00:56:05.913Z,5.33
2023-01-08T00:59:09.943Z,5.01
2023-01-08T01:02:14.174Z,5.04
2023-01-08T01:05:18.171Z,5.30
2023-01-08T01:08:22.130Z,4.92
2023-01-08T01:11:26.016Z,5.05
2023-01-08T01:14:29.998Z,4.67
2023-01-08T01:17:34.252Z,4.61
2023-01-08T01:20:38.267Z,4.55
2023-01-08T01:23:42.121Z,4.43
2023-01-08T01:26:45.910Z,4.01
2023-01-08T01:29:49.928Z,4.51
2023-01-08T01:32:53.885Z,4.27
2023-01-08T01:35:57.786Z,4.19
2023-01-08T01:39:01.642Z,4.23
2023-01-08T01:42:05.837Z,4.47
2023-01-08T01:45:10.133Z,4.27
2023-01-08T01:48:14.413Z,4.51
2023-01-08T01:51:18.235Z,4.39
2023-01-08T01:54:21.950Z,4.75
2023-01-08T01:57:25.958Z,4.29
2023-01-08T02:00:30.071Z,4.01
2023-01-08T02:03:33.908Z,4.22
2023-01-08T02:06:37.697Z,3.92
2023-01-08T02:09:41.725Z,4.14
2023-01-08T02:12:46.503Z,3.99
2023-01-08T02:15:50.720Z,3.99
2023-01-08T02:18:54.478Z,3.58
2023-01-08T02:21:58.624Z,4.05
2023-01-08T02:25:02.647Z,3.83
2023-01-08T02:28:06.709Z,3.93
2023-01-08T02:31:10.647Z,3.87
2023-01-08T02:34:14.448Z,3.81
2023-01-08T02:37:18.492Z,3.87
2023-01-08T02:40:22.779Z,4.17
2023-01-08T02:43:26.552Z,3.72
2023-01-08T02:46:30.466Z,3.96
2023-01-08T02:49:34.398Z,3.82
2023-01-08T02:52:38.732Z,3.65
2023-01-08T02:55:42.742Z,3.74
2023-01-08T02:58:46.611Z,3.30
2023-01-08T03:01:51.478Z,3.29
2023-01-08T03:04:55.327Z,3.94
2023-01-08T03:07:59.225Z,3.77
2023-01-08T03:11:03.205Z,3.90
2023-01-08T03:14:06.873Z,3.52
2023-01-08T03:17:10.883Z,3.86
2023-01-08T03:20:14.783Z,3.91
2023-01-08T03:23:18.789Z,3.70
2023-01-08T03:26:22.693Z,4.01
2023-01-08T03:29:26.530Z,4.08
2023-01-08T03:32:30.460Z,3.98
2023-01-08T03:35:34.429Z,3.86
2023-01-08T03:38:38.397Z,3.85
2023-01-08T03:41:42.234Z,3.78
2023-01-08T03:44:46.176Z,3.60
2023-01-08T03:47:50.099Z,3.85
2023-01-08T03:50:54.361Z,3.99
2023-01-08T03:53:58.190Z,3.95
2023-01-08T03:57:02.095Z,3.94
2023-01-08T04:00:06.271Z,3.42
2023-01-08T04:03:10.495Z,3.85
2023-01-08T04:06:14.610Z,3.51
2023-01-08T04:09:18.461Z,3.61
2023-01-08T04:12:22.423Z,3.41
2023-01-08T04:15:26.566Z,3.60
2023-01-08T04:18:30.552Z,3.69
2023-01-08T04:21:34.623Z,3.46
2023-01-08T04:24:38.482Z,3.84
2023-01-08T04:27:42.557Z,3.66
2023-01-08T04:30:46.544Z,3.72
2023-01-08T04:33:50.414Z,3.78
2023-01-08T04:36:54.828Z,3.78
2023-01-08T04:39:58.500Z,3.43
2023-01-08T04:43:02.591Z,3.37
2023-01-08T04:46:06.638Z,3.63
2023-01-08T04:49:10.413Z,3.11
2023-01-08T04:52:14.334Z,3.25
2023-01-08T04:55:18.485Z,3.14
2023-01-08T04:58:22.466Z,2.99
2023-01-08T05:01:26.626Z,2.92
2023-01-08T05:04:30.585Z,2.88
2023-01-08T05:07:36.000Z,2.64
2023-01-08T05:10:44.784Z,2.53
2023-01-08T05:13:48.902Z,2.26
2023-01-08T05:16:52.963Z,2.36
2023-01-08T05:19:57.060Z,2.11
2023-01-08T05:23:00.731Z,2.54
2023-01-08T05:26:04.837Z,2.52
2023-01-08T05:29:08.593Z,2.24
2023-01-08T05:32:12.686Z,2.46
2023-01-08T05:35:16.685Z,2.26
2023-01-08T05:38:20.630Z,2.65
2023-01-08T05:41:24.649Z,2.79
2023-01-08T05:44:28.908Z,2.28
2023-01-08T05:47:33.011Z,2.18
2023-01-08T05:50:36.805Z,2.59
2023-01-08T05:53:40.773Z,2.44
2023-01-08T05:56:44.826Z,2.38
2023-01-08T05:59:48.860Z,2.35
2023-01-08T06:02:52.825Z,2.26
2023-01-08T06:05:56.614Z,2.25
2023-01-08T06:09:00.839Z,2.27
2023-01-08T06:12:04.939Z,2.49
2023-01-08T06:15:08.968Z,2.27
2023-01-08T06:18:12.841Z,2.28
2023-01-08T06:21:17.134Z,2.54
2023-01-08T06:24:21.176Z,2.32
2023-01-08T06:27:25.421Z,2.45
2023-01-08T06:30:29.308Z,2.46
2023-01-08T06:33:33.155Z,2.83
2023-01-08T06:36:37.220Z,2.61
2023-01-08T06:39:41.074Z,2.76
2023-01-08T06:42:45.154Z,2.71
2023-01-08T06:45:49.034Z,2.96
2023-01-08T06:48:53.234Z,2.95
2023-01-08T06:51:57.222Z,2.75
2023-01-08T06:55:01.248Z,2.76
2023-01-08T06:58:05.222Z,2.88
2023-01-08T07:01:09.118Z,2.78
2023-01-08T07:04:13.230Z,2.91
2023-01-08T07:07:17.092Z,3.33
2023-01-08T07:10:21.113Z,3.05
2023-01-08T07:13:24.877Z,3.31
2023-01-08T07:16:28.889Z,3.06
2023-01-08T07:19:32.874Z,3.13
2023-01-08T07:22:36.579Z,3.00
2023-01-08T07:25:40.495Z,3.21
2023-01-08T07:28:44.369Z,3.06
2023-01-08T07:31:48.629Z,2.84
2023-01-08T07:34:52.694Z,3.11
2023-01-08T07:37:56.698Z,3.00
2023-01-08T07:41:00.588Z,3.08
2023-01-08T07:44:04.361Z,3.15
2023-01-08T07:47:08.536Z,3.21
2023-01-08T07:50:12.741Z,2.94
2023-01-08T07:53:16.731Z,2.82
2023-01-08T07:56:20.756Z,3.09
2023-01-08T07:59:24.644Z,2.93
2023-01-08T08:02:28.898Z,2.87
2023-01-08T08:05:32.717Z,2.85
2023-01-08T08:08:36.667Z,2.89
2023-01-08T08:11:40.789Z,2.84
2023-01-08T08:14:44.840Z,2.84
2023-01-08T08:17:48.508Z,2.95
2023-01-08T08:20:52.432Z,2.81
2023-01-08T08:23:56.389Z,2.82
2023-01-08T08:27:00.290Z,2.87
2023-01-08T08:30:04.311Z,2.67
2023-01-08T08:33:08.310Z,2.91
2023-01-08T08:36:12.147Z,2.64
2023-01-08T08:39:16.207Z,2.61
2023-01-08T08:42:20.425Z,2.65
2023-01-08T08:45:24.654Z,2.81
2023-01-08T08:48:28.629Z,2.71
2023-01-08T08:51:32.476Z,2.67
2023-01-08T08:54:36.593Z,2.98
2023-01-08T08:57:40.948Z,2.69
2023-01-08T09:00:44.844Z,2.86
2023-01-08T09:03:48.801Z,2.66
2023-01-08T09:06:52.958Z,2.42
2023-01-08T09:09:57.096Z,2.27
2023-01-08T09:13:01.251Z,2.18
2023-01-08T09:16:05.358Z,2.18
2023-01-08T09:19:09.208Z,2.13
2023-01-08T09:22:13.139Z,2.22
2023-01-08T09:25:17.093Z,2.39
2023-01-08T09:28:21.024Z,2.14
2023-01-08T09:31:24.936Z,2.37
2023-01-08T09:34:28.964Z,2.16
2023-01-08T09:37:33.085Z,1.98
2023-01-08T09:40:37.306Z,2.14
2023-01-08T09:43:41.400Z,2.51
2023-01-08T09:46:45.309Z,2.10
2023-01-08T09:49:49.231Z,2.04
2023-01-08T09:52:53.468Z,1.80
2023-01-08T09:56:09.209Z,1.96
2023-01-08T09:59:14.029Z,3.29
2023-01-08T10:02:18.353Z,3.05
2023-01-08T10:05:22.218Z,3.01
2023-01-08T10:08:26.041Z,2.51
2023-01-08T10:11:30.775Z,2.61
2023-01-08T10:14:34.812Z,3.32
2023-01-08T10:17:38.717Z,2.94
2023-01-08T10:20:42.949Z,2.79
2023-01-08T10:23:46.760Z,3.00
2023-01-08T10:26:51.557Z,4.09
2023-01-08T10:29:56.254Z,2.98
2023-01-08T10:33:00.424Z,2.93
2023-01-08T10:36:04.326Z,3.13
2023-01-08T10:39:08.270Z,2.94
2023-01-08T10:42:12.245Z,2.86
2023-01-08T10:45:16.214Z,2.82
2023-01-08T10:48:19.979Z,2.90
2023-01-08T10:51:24.123Z,3.49
2023-01-08T10:54:27.960Z,3.21
2023-01-08T10:57:31.815Z,3.23
2023-01-08T11:00:36.060Z,3.01
2023-01-08T11:03:40.232Z,2.99
2023-01-08T11:06:43.972Z,3.07
2023-01-08T11:09:47.847Z,3.51
2023-01-08T11:12:51.825Z,3.35
2023-01-08T11:15:56.051Z,3.29
2023-01-08T11:18:59.964Z,3.08
2023-01-08T11:22:03.742Z,3.30
2023-01-08T11:25:07.668Z,3.46
2023-01-08T11:28:11.709Z,3.55
2023-01-08T11:31:15.612Z,3.27
2023-01-08T11:34:19.390Z,3.75
2023-01-08T11:37:23.609Z,3.38
2023-01-08T11:40:27.585Z,3.77
2023-01-08T11:43:31.681Z,3.69
2023-01-08T11:46:35.918Z,3.53
2023-01-08T11:49:39.622Z,3.72
2023-01-08T11:52:43.646Z,3.89
2023-01-08T11:55:47.749Z,4.31
2023-01-08T11:58:51.608Z,5.47
2023-01-08T12:01:55.741Z,4.12
2023-01-08T12:04:59.466Z,4.35
2023-01-08T12:08:03.654Z,3.68
2023-01-08T12:11:07.792Z,5.26
2023-01-08T12:14:11.681Z,4.46
2023-01-08T12:17:15.532Z,4.58
2023-01-08T12:20:19.507Z,4.76
2023-01-08T12:23:23.589Z,4.87
2023-01-08T12:26:27.679Z,4.56
2023-01-08T12:29:31.536Z,4.27
2023-01-08T12:32:35.463Z,3.98
2023-01-08T12:35:39.482Z,3.53
2023-01-08T12:38:43.454Z,3.46
2023-01-08T12:41:47.246Z,3.59
2023-01-08T12:44:51.325Z,3.89
2023-01-08T12:47:55.700Z,4.05
2023-01-08T12:50:59.894Z,3.62
2023-01-08T12:54:03.952Z,3.43
2023-01-08T12:57:08.002Z,3.23
2023-01-08T13:00:12.088Z,3.41
2023-01-08T13:03:16.187Z,3.16
2023-01-08T13:06:20.150Z,3.35
2023-01-08T13:09:24.192Z,2.91
2023-01-08T13:12:28.100Z,2.37
2023-01-08T13:15:32.086Z,2.29
2023-01-08T13:18:36.049Z,2.77
2023-01-08T13:21:40.148Z,2.55
2023-01-08T13:24:44.173Z,2.33
2023-01-08T13:27:48.210Z,2.58
2023-01-08T13:30:52.416Z,3.03
2023-01-08T13:33:56.537Z,3.00
2023-01-08T13:37:00.490Z,2.83
2023-01-08T13:40:04.365Z,2.98
2023-01-08T13:43:08.332Z,2.72
2023-01-08T13:46:12.535Z,3.12
2023-01-08T13:49:16.323Z,3.11
2023-01-08T13:52:20.328Z,3.09
2023-01-08T13:55:24.331Z,3.03
2023-01-08T13:58:30.830Z,3.12
2023-01-08T14:01:35.261Z,2.82
2023-01-08T14:04:41.557Z,2.86
2023-01-08T14:07:45.374Z,3.13
2023-01-08T14:10:49.147Z,3.09
2023-01-08T14:13:53.102Z,3.03
2023-01-08T14:16:57.159Z,2.80
2023-01-08T14:20:01.350Z,2.69
2023-01-08T14:23:05.373Z,2.66
2023-01-08T14:26:09.155Z,2.61
2023-01-08T14:29:13.245Z,3.03
2023-01-08T14:32:17.311Z,3.14
2023-01-08T14:35:21.181Z,2.88
2023-01-08T14:38:24.949Z,2.76
2023-01-08T14:41:28.949Z,2.64
2023-01-08T14:44:40.472Z,2.66
2023-01-08T14:47:46.124Z,2.45
2023-01-08T14:50:50.110Z,2.41
2023-01-08T14:53:54.215Z,2.56
2023-01-08T14:56:58.174Z,2.17
2023-01-08T15:00:02.063Z,1.73
2023-01-08T15:03:06.324Z,1.80
2023-01-08T15:06:10.145Z,3.14
2023-01-08T15:09:14.076Z,4.89
2023-01-08T15:12:18.043Z,4.97
2023-01-08T15:15:21.640Z,3.31
2023-01-08T15:18:25.529Z,2.80
2023-01-08T15:21:29.503Z,3.15
2023-01-08T15:24:33.484Z,4.04
2023-01-08T15:27:37.649Z,3.91
2023-01-08T15:30:41.655Z,3.38
2023-01-08T15:33:45.688Z,3.52
2023-01-08T15:36:49.611Z,3.60
2023-01-08T15:39:53.724Z,3.61
2023-01-08T15:42:57.503Z,3.33
2023-01-08T15:46:01.698Z,4.00
2023-01-08T15:49:05.639Z,3.98
2023-01-08T15:52:09.746Z,4.18
2023-01-08T15:55:13.533Z,3.79
2023-01-08T15:58:17.618Z,4.19
2023-01-08T16:01:21.893Z,3.81
2023-01-08T16:04:25.804Z,3.80
2023-01-08T16:07:29.836Z,3.19
2023-01-08T16:10:33.988Z,3.14
2023-01-08T16:13:38.016Z,2.52
2023-01-08T16:16:42.267Z,2.47
2023-01-08T16:19:46.131Z,2.02
2023-01-08T16:22:49.995Z,2.06
2023-01-08T16:25:53.978Z,2.13
2023-01-08T16:28:58.110Z,2.07
2023-01-08T16:32:02.264Z,1.93
2023-01-08T16:35:06.375Z,2.04
2023-01-08T16:38:10.362Z,2.10
2023-01-08T16:41:14.325Z,2.24
2023-01-08T16:44:18.486Z,2.28
2023-01-08T16:47:22.448Z,2.31
2023-01-08T16:50:26.298Z,2.68
2023-01-08T16:53:30.420Z,2.75
2023-01-08T16:56:34.330Z,2.46
2023-01-08T16:59:38.360Z,2.64
2023-01-08T17:02:42.134Z,2.59
2023-01-08T17:05:46.098Z,2.44
2023-01-08T17:08:50.220Z,3.38
2023-01-08T17:11:54.258Z,2.99
2023-01-08T17:14:58.228Z,3.81
2023-01-08T17:18:02.294Z,3.12
2023-01-08T17:21:06.506Z,3.04
2023-01-08T17:24:10.786Z,3.26
2023-01-08T17:27:14.808Z,3.81
2023-01-08T17:30:18.757Z,3.85
2023-01-08T17:33:22.784Z,3.41
2023-01-08T17:36:26.515Z,3.55
2023-01-08T17:39:30.736Z,3.74
2023-01-08T17:42:34.597Z,3.84
2023-01-08T17:45:38.423Z,3.98
2023-01-08T17:48:42.449Z,3.69
2023-01-08T17:51:46.756Z,3.75
2023-01-08T17:54:50.732Z,3.66
2023-01-08T17:57:54.614Z,3.90
2023-01-08T18:00:58.710Z,3.90
2023-01-08T18:04:02.817Z,3.55
2023-01-08T18:07:06.838Z,3.47
2023-01-08T18:10:10.866Z,3.18
2023-01-08T18:13:14.712Z,12.24
2023-01-08T18:16:18.695Z,7.91
2023-01-08T18:19:22.836Z,2.17
2023-01-08T18:22:26.504Z,2.03
2023-01-08T18:25:30.579Z,1.89
2023-01-08T18:28:34.624Z,2.04
2023-01-08T18:31:38.801Z,2.34
2023-01-08T18:34:42.664Z,1.99
2023-01-08T18:37:46.550Z,2.34
2023-01-08T18:40:50.344Z,2.14
2023-01-08T18:43:54.264Z,1.74
2023-01-08T18:46:58.141Z,1.60
2023-01-08T18:50:02.307Z,1.66
2023-01-08T18:53:06.242Z,1.76
2023-01-08T18:56:10.290Z,1.66
2023-01-08T18:59:14.460Z,1.33
2023-01-08T19:02:18.805Z,1.37
2023-01-08T19:05:22.867Z,1.45
2023-01-08T19:08:26.853Z,1.57
2023-01-08T19:11:30.824Z,1.47
2023-01-08T19:14:35.016Z,1.45
2023-01-08T19:17:39.210Z,1.65
2023-01-08T19:20:43.068Z,1.83
2023-01-08T19:23:46.948Z,1.86
2023-01-08T19:26:50.922Z,1.97
2023-01-08T19:29:54.981Z,1.56
2023-01-08T19:32:58.978Z,1.61
2023-01-08T19:36:02.926Z,1.61
2023-01-08T19:39:06.840Z,1.30
2023-01-08T19:42:12.391Z,1.44
2023-01-08T19:45:16.339Z,1.89
2023-01-08T19:48:20.331Z,1.58
2023-01-08T19:51:24.124Z,1.62
2023-01-08T19:54:28.140Z,1.46
2023-01-08T19:57:32.408Z,1.28
2023-01-08T20:00:36.354Z,1.30
2023-01-08T20:03:40.321Z,1.11
2023-01-08T20:06:44.167Z,1.33
2023-01-08T20:09:48.350Z,1.40
2023-01-08T20:12:52.424Z,1.30
2023-01-08T20:15:56.140Z,1.09
2023-01-08T20:18:59.967Z,1.24
2023-01-08T20:22:04.056Z,1.14
2023-01-08T20:25:08.125Z,1.42
2023-01-08T20:28:12.221Z,1.52
2023-01-08T20:31:16.029Z,1.57
2023-01-08T20:34:19.905Z,1.82
2023-01-08T20:37:24.230Z,1.59
2023-01-08T20:40:28.361Z,1.69
2023-01-08T20:43:32.426Z,1.53
2023-01-08T20:46:36.322Z,1.46
2023-01-08T20:49:40.297Z,1.58
2023-01-08T20:52:44.322Z,1.53
2023-01-08T20:55:48.523Z,1.30
2023-01-08T20:58:52.173Z,1.15
2023-01-08T21:01:56.176Z,1.11
2023-01-08T21:05:00.151Z,1.23
2023-01-08T21:08:04.175Z,1.27
2023-01-08T21:11:07.870Z,1.23
2023-01-08T21:14:11.697Z,1.32
2023-01-08T21:17:15.832Z,1.47
2023-01-08T21:20:19.796Z,1.27
2023-01-08T21:23:24.083Z,1.42
2023-01-08T21:26:27.866Z,1.42
2023-01-08T21:29:31.870Z,1.29
2023-01-08T21:32:36.120Z,1.22
2023-01-08T21:35:40.157Z,1.44
2023-01-08T21:38:44.289Z,1.51
2023-01-08T21:41:48.416Z,1.41
2023-01-08T21:44:52.155Z,1.52
2023-01-08T21:47:58.548Z,1.87
2023-01-08T21:51:02.609Z,1.56
2023-01-08T21:54:06.545Z,1.55
2023-01-08T21:57:10.420Z,1.44
2023-01-08T22:00:14.458Z,1.47
2023-01-08T22:03:18.404Z,1.52
2023-01-08T22:06:22.304Z,1.46
2023-01-08T22:09:26.133Z,1.40
2023-01-08T22:12:30.280Z,1.45
2023-01-08T22:15:34.462Z,1.71
2023-01-08T22:18:38.608Z,1.27
2023-01-08T22:21:42.634Z,1.46
2023-01-08T22:24:46.363Z,1.34
2023-01-08T22:27:50.456Z,1.47
2023-01-08T22:30:54.713Z,1.20
2023-01-08T22:33:58.604Z,1.21
2023-01-08T22:37:02.470Z,1.31
2023-01-08T22:40:06.381Z,1.24
2023-01-08T22:43:10.389Z,1.27
2023-01-08T22:46:15.558Z,1.65
2023-01-08T22:49:19.408Z,1.97
2023-01-08T22:52:23.232Z,1.85
2023-01-08T22:55:27.115Z,2.08
2023-01-08T22:58:31.281Z,1.98
2023-01-08T23:01:35.244Z,2.04
2023-01-08T23:04:39.289Z,1.80
2023-01-08T23:07:43.158Z,1.88
2023-01-08T23:10:48.379Z,1.23
2023-01-08T23:13:52.300Z,1.07
2023-01-08T23:16:56.356Z,1.05
2023-01-08T23:20:00.179Z,1.06
2023-01-08T23:23:04.120Z,1.05
2023-01-08T23:26:08.093Z,1.03
2023-01-08T23:29:12.142Z,1.02
2023-01-08T23:32:16.106Z,0.97
2023-01-08T23:35:19.903Z,1.12
2023-01-08T23:38:23.878Z,1.18
2023-01-08T23:41:28.061Z,0.94
2023-01-08T23:44:32.074Z,1.14
2023-01-08T23:47:35.949Z,1.56
2023-01-08T23:50:39.963Z,1.54
2023-01-08T23:53:44.079Z,2.04
2023-01-08T23:56:48.155Z,2.06
2023-01-08T23:59:52.122Z,1.89
